createdAt,value
2022-11-03T00:01:21.650Z,9.00
2022-11-03T00:06:02.336Z,8.50
2022-11-03T00:10:24.377Z,9.02
2022-11-03T00:14:46.395Z,8.38
2022-11-03T00:19:10.306Z,9.05
2022-11-03T00:23:36.113Z,8.82
2022-11-03T00:27:58.295Z,8.77
2022-11-03T00:32:20.003Z,7.70
2022-11-03T00:36:44.610Z,8.27
2022-11-03T00:41:07.327Z,7.53
2022-11-03T00:45:29.373Z,8.02
2022-11-03T00:49:51.389Z,8.20
2022-11-03T00:54:13.333Z,8.48
2022-11-03T00:58:35.495Z,7.70
2022-11-03T01:02:57.210Z,8.43
2022-11-03T01:07:21.448Z,7.75
2022-11-03T01:11:43.839Z,8.75
2022-11-03T01:16:06.088Z,7.45
2022-11-03T01:20:27.700Z,7.57
2022-11-03T01:24:50.503Z,6.70
2022-11-03T01:29:12.361Z,7.70
2022-11-03T01:33:34.441Z,7.25
2022-11-03T01:37:56.786Z,8.43
2022-11-03T01:42:18.537Z,7.63
2022-11-03T01:46:51.483Z,7.07
2022-11-03T01:51:17.043Z,9.32
2022-11-03T01:55:41.770Z,8.80
2022-11-03T02:00:05.800Z,10.07
2022-11-03T02:04:35.233Z,10.88
2022-11-03T02:09:01.849Z,10.25
2022-11-03T02:13:26.589Z,10.18
2022-11-03T02:17:52.110Z,10.55
2022-11-03T02:22:55.047Z,6.55
2022-11-03T02:27:17.820Z,7.55
2022-11-03T02:31:46.375Z,6.45
2022-11-03T02:36:20.205Z,6.97
2022-11-03T02:40:48.910Z,8.88
2022-11-03T02:45:16.394Z,8.70
2022-11-03T02:49:51.701Z,9.50
2022-11-03T02:54:26.378Z,9.55
2022-11-03T02:59:06.750Z,8.77
2022-11-03T03:03:52.315Z,8.45
2022-11-03T03:08:15.726Z,8.50
2022-11-03T03:12:46.742Z,5.65
2022-11-03T03:17:19.816Z,7.03
2022-11-03T03:21:47.818Z,6.75
2022-11-03T03:26:21.597Z,6.65
2022-11-03T03:30:45.126Z,6.20
2022-11-03T03:35:13.109Z,6.07
2022-11-03T03:39:38.990Z,5.90
2022-11-03T03:44:05.751Z,5.38
2022-11-03T03:48:27.488Z,5.00
2022-11-03T03:52:49.682Z,4.95
2022-11-03T03:57:32.271Z,5.72
2022-11-03T04:01:54.489Z,5.35
2022-11-03T04:06:16.277Z,5.25
2022-11-03T04:10:38.191Z,5.05
2022-11-03T04:15:18.874Z,5.65
2022-11-03T04:19:59.251Z,5.93
2022-11-03T04:24:21.266Z,5.72
2022-11-03T04:28:43.890Z,4.65
2022-11-03T04:33:22.912Z,4.95
2022-11-03T04:37:48.247Z,4.38
2022-11-03T04:42:21.379Z,4.78
2022-11-03T04:46:45.421Z,5.57
2022-11-03T04:51:30.725Z,5.75
2022-11-03T04:55:54.304Z,4.35
2022-11-03T05:00:18.782Z,3.72
2022-11-03T05:04:42.206Z,3.60
2022-11-03T05:09:20.308Z,4.07
2022-11-03T05:13:42.276Z,3.22
2022-11-03T05:18:32.564Z,3.42
2022-11-03T05:22:54.288Z,3.35
2022-11-03T05:27:21.664Z,3.30
2022-11-03T05:31:46.592Z,2.42
2022-11-03T05:36:22.900Z,2.42
2022-11-03T05:40:44.542Z,2.35
2022-11-03T05:45:22.443Z,2.50
2022-11-03T05:49:44.657Z,3.28
2022-11-03T05:54:19.583Z,2.53
2022-11-03T05:58:43.325Z,2.38
2022-11-03T06:03:06.368Z,2.90
2022-11-03T06:07:32.443Z,2.55
2022-11-03T06:11:58.131Z,2.38
2022-11-03T06:16:45.163Z,3.63
2022-11-03T06:21:21.658Z,2.80
2022-11-03T06:25:43.666Z,2.20
2022-11-03T06:30:31.819Z,2.40
2022-11-03T06:34:57.732Z,2.55
2022-11-03T06:39:26.260Z,3.33
2022-11-03T06:43:48.908Z,2.83
2022-11-03T06:48:20.787Z,2.15
2022-11-03T06:52:45.590Z,2.58
2022-11-03T06:57:16.260Z,2.45
2022-11-03T07:01:38.241Z,2.30
2022-11-03T07:06:25.685Z,2.58
2022-11-03T07:10:48.964Z,3.30
2022-11-03T07:22:29.663Z,2.88
2022-11-03T07:33:24.037Z,2.08
2022-11-03T07:37:47.659Z,2.58
2022-11-03T07:42:18.758Z,3.15
2022-11-03T07:46:40.849Z,1.80
2022-11-03T07:51:27.370Z,2.20
2022-11-03T07:55:49.879Z,2.28
2022-11-03T08:00:22.759Z,2.10
2022-11-03T08:04:44.655Z,1.90
2022-11-03T08:09:07.187Z,2.28
2022-11-03T08:13:29.133Z,1.98
2022-11-03T08:17:55.983Z,2.03
2022-11-03T08:22:18.144Z,1.48
2022-11-03T08:26:40.110Z,2.13
2022-11-03T08:31:09.485Z,1.70
2022-11-03T08:35:34.257Z,1.80
2022-11-03T08:39:56.195Z,1.70
2022-11-03T08:44:18.199Z,2.45
2022-11-03T08:48:40.569Z,2.08
2022-11-03T08:53:02.411Z,1.88
2022-11-03T08:57:24.370Z,1.60
2022-11-03T09:01:47.302Z,1.75
2022-11-03T09:06:09.774Z,3.10
2022-11-03T09:10:33.429Z,2.70
2022-11-03T09:14:57.579Z,2.13
2022-11-03T09:19:19.646Z,2.10
2022-11-03T09:23:41.546Z,2.50
2022-11-03T09:28:03.362Z,2.28
2022-11-03T09:32:26.091Z,2.22
2022-11-03T09:36:52.973Z,2.42
2022-11-03T09:41:26.229Z,2.15
2022-11-03T09:45:56.944Z,2.55
2022-11-03T09:50:22.822Z,2.10
2022-11-03T09:54:45.486Z,2.97
2022-11-03T09:59:20.008Z,2.42
2022-11-03T10:03:41.866Z,2.30
2022-11-03T10:08:11.845Z,2.50
2022-11-03T10:12:37.925Z,2.28
2022-11-03T10:17:00.654Z,2.45
2022-11-03T10:21:34.270Z,2.22
2022-11-03T10:26:10.222Z,2.40
2022-11-03T10:30:36.303Z,2.22
2022-11-03T10:35:35.106Z,2.65
2022-11-03T10:39:58.614Z,2.00
2022-11-03T10:44:21.056Z,2.03
2022-11-03T10:48:43.052Z,2.33
2022-11-03T10:53:05.322Z,2.40
2022-11-03T10:57:28.055Z,1.70
2022-11-03T11:01:50.391Z,1.67
2022-11-03T11:06:29.416Z,1.67
2022-11-03T11:10:51.494Z,2.15
2022-11-03T11:15:47.130Z,1.80
2022-11-03T11:20:33.276Z,2.08
2022-11-03T11:24:59.681Z,2.22
2022-11-03T11:29:41.878Z,2.78
2022-11-03T11:34:09.828Z,2.13
2022-11-03T11:38:52.727Z,1.70
2022-11-03T11:43:34.726Z,1.73
2022-11-03T11:47:56.976Z,1.55
2022-11-03T11:52:19.435Z,1.98
2022-11-03T11:56:47.610Z,2.10
2022-11-03T12:01:30.649Z,2.05
2022-11-03T12:05:52.613Z,2.88
2022-11-03T12:10:22.854Z,2.28
2022-11-03T12:14:44.635Z,2.42
2022-11-03T12:19:34.594Z,2.10
2022-11-03T12:23:56.182Z,2.13
2022-11-03T12:28:32.796Z,2.25
2022-11-03T12:32:54.974Z,2.17
2022-11-03T12:37:16.709Z,2.85
2022-11-03T12:41:39.199Z,1.90
2022-11-03T12:46:00.757Z,2.15
2022-11-03T12:50:22.782Z,2.10
2022-11-03T12:54:44.630Z,3.45
2022-11-03T12:59:06.998Z,2.65
2022-11-03T13:03:29.276Z,2.45
2022-11-03T13:07:51.011Z,2.70
2022-11-03T13:12:31.901Z,2.05
2022-11-03T13:16:53.823Z,3.05
2022-11-03T13:21:15.575Z,2.35
2022-11-03T13:25:37.543Z,2.53
2022-11-03T13:29:59.471Z,2.63
2022-11-03T13:34:21.478Z,2.75
2022-11-03T13:38:43.556Z,3.00
2022-11-03T13:43:06.005Z,2.67
2022-11-03T13:47:41.949Z,2.70
2022-11-03T13:52:09.999Z,2.60
2022-11-03T13:56:32.199Z,3.30
2022-11-03T14:00:54.493Z,3.75
2022-11-03T14:05:16.574Z,3.45
2022-11-03T14:09:38.447Z,3.05
2022-11-03T14:14:00.570Z,3.50
2022-11-03T14:18:22.674Z,3.42
2022-11-03T14:22:44.740Z,4.05
2022-11-03T14:27:07.323Z,3.65
2022-11-03T14:31:29.322Z,3.67
2022-11-03T14:35:51.470Z,4.38
2022-11-03T14:40:33.555Z,3.70
2022-11-03T14:44:55.729Z,4.93
2022-11-03T14:49:18.222Z,5.25
2022-11-03T14:53:39.904Z,4.68
2022-11-03T14:58:02.037Z,3.85
2022-11-03T15:02:23.916Z,4.90
2022-11-03T15:06:46.445Z,5.15
2022-11-03T15:11:10.084Z,4.88
2022-11-03T15:15:31.734Z,5.15
2022-11-03T15:19:53.773Z,5.32
2022-11-03T15:28:58.696Z,5.13
2022-11-03T15:33:21.158Z,5.63
2022-11-03T15:37:43.227Z,5.70
2022-11-03T15:42:05.300Z,6.55
2022-11-03T15:46:26.950Z,6.32
2022-11-03T15:50:49.156Z,6.35
2022-11-03T15:55:11.242Z,5.82
2022-11-03T15:59:32.896Z,6.20
2022-11-03T16:03:54.792Z,6.53
2022-11-03T16:08:16.963Z,6.85
2022-11-03T16:12:39.023Z,6.50
2022-11-03T16:17:01.126Z,7.13
2022-11-03T16:21:25.151Z,6.25
2022-11-03T16:25:47.503Z,7.30
2022-11-03T16:30:11.745Z,6.53
2022-11-03T16:34:33.846Z,6.38
2022-11-03T16:38:56.562Z,7.03
2022-11-03T16:43:18.348Z,7.25
2022-11-03T16:47:40.841Z,7.03
2022-11-03T16:52:02.774Z,8.27
2022-11-03T16:56:27.631Z,7.93
2022-11-03T17:00:52.668Z,9.23
2022-11-03T17:05:17.673Z,9.80
2022-11-03T17:09:40.427Z,11.05
2022-11-03T17:14:05.442Z,11.40
2022-11-03T17:18:27.572Z,14.20
2022-11-03T17:22:49.656Z,13.60
2022-11-03T17:27:29.229Z,13.32
2022-11-03T17:31:51.984Z,15.77
2022-11-03T17:36:13.922Z,14.43
2022-11-03T17:40:38.881Z,15.27
2022-11-03T17:45:01.256Z,14.32
2022-11-03T17:49:24.016Z,15.88
2022-11-03T17:53:43.186Z,14.70
2022-11-03T17:58:06.114Z,13.95
2022-11-03T18:02:31.984Z,14.38
2022-11-03T18:06:54.736Z,16.10
2022-11-03T18:11:47.227Z,13.55
2022-11-03T18:16:12.579Z,12.98
2022-11-03T18:20:35.024Z,14.48
2022-11-03T18:24:57.317Z,13.68
2022-11-03T18:29:19.395Z,12.43
2022-11-03T18:33:41.541Z,14.93
2022-11-03T18:38:06.859Z,13.02
2022-11-03T18:42:32.901Z,12.88
2022-11-03T18:46:55.603Z,11.85
2022-11-03T18:51:18.425Z,11.65
2022-11-03T18:55:41.173Z,11.77
2022-11-03T19:00:06.415Z,11.70
2022-11-03T19:04:28.568Z,11.88
2022-11-03T19:08:59.619Z,10.38
2022-11-03T19:13:36.081Z,10.85
2022-11-03T19:17:58.193Z,10.05
2022-11-03T19:22:22.353Z,10.50
2022-11-03T19:26:54.350Z,9.40
2022-11-03T19:31:34.583Z,7.70
2022-11-03T19:35:58.428Z,8.27
2022-11-03T19:40:20.913Z,8.27
2022-11-03T19:44:42.691Z,8.65
2022-11-03T19:49:06.130Z,7.70
2022-11-03T19:53:30.076Z,7.30
2022-11-03T19:57:52.481Z,7.43
2022-11-03T20:02:14.767Z,7.70
2022-11-03T20:06:41.144Z,7.68
2022-11-03T20:11:05.228Z,7.25
2022-11-03T20:15:27.033Z,8.25
2022-11-03T20:19:49.592Z,7.05
2022-11-03T20:24:16.410Z,7.28
2022-11-03T20:28:40.002Z,7.07
2022-11-03T20:33:02.111Z,7.18
2022-11-03T20:37:29.780Z,7.10
2022-11-03T20:41:54.466Z,6.75
2022-11-03T20:46:29.639Z,8.05
2022-11-03T20:50:52.706Z,7.50
2022-11-03T20:55:25.747Z,7.15
2022-11-03T20:59:47.975Z,7.47
2022-11-03T21:04:19.207Z,6.50
2022-11-03T21:08:41.241Z,6.60
2022-11-03T21:13:03.763Z,6.20
2022-11-03T21:17:44.644Z,6.35
2022-11-03T21:22:50.390Z,5.88
2022-11-03T21:27:06.376Z,6.50
2022-11-03T21:31:28.364Z,7.75
2022-11-03T21:35:51.138Z,7.90
2022-11-03T21:40:13.466Z,8.25
2022-11-03T21:44:36.303Z,9.18
2022-11-03T21:49:16.879Z,9.63
2022-11-03T21:53:38.909Z,9.20
2022-11-03T21:58:03.440Z,9.60
2022-11-03T22:02:27.872Z,10.85
2022-11-03T22:06:53.306Z,11.13
2022-11-03T22:11:21.706Z,13.30
2022-11-03T22:16:02.639Z,13.93
2022-11-03T22:20:42.807Z,14.25
2022-11-03T22:25:23.733Z,15.80
2022-11-03T22:30:04.430Z,13.77
2022-11-03T22:34:45.074Z,15.07
2022-11-03T22:39:26.049Z,16.60
2022-11-03T22:44:06.590Z,16.13
2022-11-03T22:48:28.575Z,17.95
2022-11-03T22:52:50.596Z,17.38
2022-11-03T22:57:13.302Z,18.65
2022-11-03T23:01:35.666Z,18.90
2022-11-03T23:06:05.162Z,19.52
2022-11-03T23:10:28.520Z,19.40
2022-11-03T23:15:08.919Z,18.83
2022-11-03T23:19:49.704Z,17.95
2022-11-03T23:24:30.319Z,18.65
2022-11-03T23:28:52.820Z,17.83
2022-11-03T23:33:15.046Z,18.50
2022-11-03T23:37:36.824Z,18.63
2022-11-03T23:41:58.871Z,18.83
2022-11-03T23:46:46.835Z,19.48
2022-11-03T23:51:08.738Z,19.58
2022-11-03T23:55:50.570Z,18.58
